K K — WDE8363 — position and weather

sailwx.info

Track history (hours):
 
Tides and Currents Weather Stations Pressure Air Temp Water Temp Dewpoint Dewpoint Depression Visibility Wind Speed Wind Dir Waves Ship Positions

K K

Owner: Lafayette Workboat Rentals LLC., Broussard, LA. More information available from US FCC via Universal Licensing System and Coast Guard Vessel Documentation Center.

Last reported at 2017-Oct-20 22:41 UTC. Time now 2017-Oct-22 23:08 UTC.
Position N 29°31' W 094°53'.

Length 16 m; draft 6 m.

Type: Ship (hazmat cat D). MMSI: 367404620.

Date/timePositionNaut miles runAvg speedWind from/ knotsBaromVisibWave heightAir tempDewpointWater temp
2017-Oct-20 22:41N 29°31' W 094°53'1 6.2
2017-Oct-20 22:30N 29°32' W 094°54'3 6.4
2017-Oct-20 22:00N 29°35' W 094°56'3 6.4
2017-Oct-20 21:30N 29°38' W 094°58'3 6.8
2017-Oct-20 21:00N 29°41' W 094°59'3 5.3
2017-Oct-20 20:30N 29°43' W 095°01'5 4.9
2017-Oct-20 19:29N 29°44' W 095°07'3 6.3
2017-Oct-20 18:57N 29°45' W 095°11'3 5.9
2017-Oct-20 18:30N 29°43' W 095°13'3 5.4
2017-Oct-20 18:00N 29°43' W 095°16'0 0.0
2017-Oct-20 17:30N 29°43' W 095°16'0 0.0
2017-Oct-20 17:00N 29°43' W 095°16'0 0.0
2017-Oct-20 16:30N 29°43' W 095°16'0 0.0
2017-Oct-20 15:59N 29°43' W 095°16'0 0.0
2017-Oct-20 15:30N 29°43' W 095°16'0 0.0
2017-Oct-20 15:00N 29°43' W 095°16'0 0.0
2017-Oct-20 14:00N 29°43' W 095°16'0 0.0
2017-Oct-20 13:29N 29°43' W 095°16'0 0.1
2017-Oct-20 12:58N 29°43' W 095°16'0 0.0
2017-Oct-20 11:27N 29°43' W 095°16'0 0.0
2017-Oct-20 10:57N 29°43' W 095°16'0 0.0
2017-Oct-20 10:30N 29°43' W 095°16'0 0.0
2017-Oct-20 10:00N 29°43' W 095°16'0 0.0
2017-Oct-20 09:29N 29°43' W 095°16'0 0.0
2017-Oct-20 08:37N 29°43' W 095°16'0 0.0
2017-Oct-20 08:27N 29°43' W 095°16'0 0.2
2017-Oct-20 08:00N 29°43' W 095°16'2 3.2
2017-Oct-20 07:22N 29°43' W 095°14'2 5.3
2017-Oct-20 06:56N 29°45' W 095°12'3 5.5
2017-Oct-20 06:28N 29°44' W 095°09'3 5.4
2017-Oct-20 05:53N 29°46' W 095°06'2 4.1
2017-Oct-20 05:24N 29°45' W 095°04'2 5.4
2017-Oct-20 04:57N 29°43' W 095°01'2 5.1
2017-Oct-20 04:30N 29°42' W 094°59'4 6.1
2017-Oct-20 03:56N 29°38' W 094°58'3 6.3
2017-Oct-20 03:30N 29°36' W 094°57'3 6.3
2017-Oct-20 03:00N 29°33' W 094°55'  
2017-Oct-17 20:50N 29°32' W 094°54'2 6.1
2017-Oct-17 20:30N 29°33' W 094°55'3 5.9
2017-Oct-17 20:00N 29°36' W 094°57'3 6.5
2017-Oct-17 19:30N 29°39' W 094°58'3 6.6
2017-Oct-17 18:59N 29°42' W 095°00'3 5.8
2017-Oct-17 18:27N 29°44' W 095°03'3 4.8
2017-Oct-17 17:45N 29°44' W 095°07'2 6.6
2017-Oct-17 17:30N 29°44' W 095°09'4 5.7
2017-Oct-17 16:50N 29°44' W 095°13'2 5.6
2017-Oct-17 16:30N 29°43' W 095°15'1 2.0
2017-Oct-17 15:54N 29°43' W 095°16'0 0.3
2017-Oct-17 15:30N 29°43' W 095°16'0 0.1
2017-Oct-17 15:00N 29°43' W 095°16'0 0.0
2017-Oct-17 14:29N 29°43' W 095°16'0 0.0
2017-Oct-17 13:59N 29°43' W 095°16'0 0.0
2017-Oct-17 13:28N 29°43' W 095°16'0 0.0
2017-Oct-17 13:00N 29°43' W 095°16'0 0.0
2017-Oct-17 12:29N 29°43' W 095°16'0 0.0
2017-Oct-17 11:58N 29°43' W 095°16'0 0.0
2017-Oct-17 09:06N 29°43' W 095°16'0 0.0
2017-Oct-17 08:59N 29°43' W 095°16'0 0.5
2017-Oct-17 08:30N 29°43' W 095°16'4 6.1
2017-Oct-17 07:55N 29°44' W 095°12'3 6.3
2017-Oct-17 07:30N 29°44' W 095°09'4 6.8
2017-Oct-17 06:58N 29°46' W 095°05'1 1.5
2017-Oct-17 06:24N 29°46' W 095°06'2 4.6
2017-Oct-17 06:00N 29°45' W 095°06'4 6.9
2017-Oct-17 05:29N 29°45' W 095°10'3 7.0
2017-Oct-17 05:00N 29°43' W 095°14'2 4.3
2017-Oct-17 04:30N 29°43' W 095°16'0 0.4
2017-Oct-17 04:00N 29°43' W 095°16'2 4.0
2017-Oct-17 03:30N 29°43' W 095°14'3 5.5
2017-Oct-17 03:00N 29°45' W 095°11'3 5.7
2017-Oct-17 02:30N 29°44' W 095°08'4 4.5
2017-Oct-17 01:41N 29°45' W 095°04'3 5.6
2017-Oct-17 01:14N 29°43' W 095°01'1 5.4
2017-Oct-17 01:00N 29°42' W 095°01'3 6.0
2017-Oct-17 00:30N 29°40' W 094°58'4 6.8
2017-Oct-16 23:57N 29°36' W 094°57'3 6.7
2017-Oct-16 23:30N 29°34' W 094°55'  
2017-Oct-13 21:30N 29°30' W 094°53'3 6.9
2017-Oct-13 21:00N 29°33' W 094°55'3 6.7
2017-Oct-13 20:30N 29°36' W 094°57'3 6.6
2017-Oct-13 19:59N 29°39' W 094°58'3 6.9
2017-Oct-13 19:30N 29°42' W 095°00'3 6.0
2017-Oct-13 19:00N 29°44' W 095°03'5 5.3
2017-Oct-13 18:02N 29°44' W 095°09'1 6.8
2017-Oct-13 17:57N 29°44' W 095°09'6 2.0
2017-Oct-13 14:53N 29°43' W 095°16'0 0.0
2017-Oct-13 14:29N 29°43' W 095°16'0 0.0
2017-Oct-13 13:58N 29°43' W 095°16'0 0.0
2017-Oct-13 13:30N 29°43' W 095°16'0 0.0
2017-Oct-13 12:58N 29°43' W 095°16'0 0.0
2017-Oct-13 12:30N 29°43' W 095°16'0 0.0
2017-Oct-13 12:00N 29°43' W 095°16'0 0.0
2017-Oct-13 11:30N 29°43' W 095°16'0 0.0
2017-Oct-13 10:51N 29°43' W 095°16'0 0.0
2017-Oct-13 10:29N 29°43' W 095°16'0 0.1
2017-Oct-13 09:59N 29°43' W 095°16'3 3.6
2017-Oct-13 09:15N 29°44' W 095°13'3 5.8
2017-Oct-13 08:44N 29°45' W 095°10'1 6.2
2017-Oct-13 08:30N 29°44' W 095°09'4 5.7
2017-Oct-13 07:48N 29°46' W 095°04'2 6.4
2017-Oct-13 07:25N 29°44' W 095°02'2 5.9
2017-Oct-13 07:00N 29°42' W 095°00'3 6.8
2017-Oct-13 06:30N 29°39' W 094°58'4 7.1
2017-Oct-13 06:00N 29°36' W 094°57'4 7.1
2017-Oct-13 05:30N 29°33' W 094°54'  
2017-Oct-11 00:00N 29°38' W 094°58'3 6.8
2017-Oct-10 23:30N 29°41' W 094°59'3 6.0
2017-Oct-10 22:59N 29°44' W 095°02'  
Track history (hours):
 
Tides and Currents Weather Stations Pressure Air Temp Water Temp Dewpoint Dewpoint Depression Visibility Wind Speed Wind Dir Waves Ship Positions

K K

Owner: Lafayette Workboat Rentals LLC., Broussard, LA. More information available from US FCC via Universal Licensing System and Coast Guard Vessel Documentation Center.

Last reported at 2017-Oct-20 22:41 UTC. Time now 2017-Oct-22 23:08 UTC.
Position N 29°31' W 094°53'.

Length 16 m; draft 6 m.

Type: Ship (hazmat cat D). MMSI: 367404620.

Date/timePositionNaut miles runAvg speedWind from/ knotsBaromVisibWave heightAir tempDewpointWater temp
2017-Oct-20 22:41N 29°31' W 094°53'1 6.2
2017-Oct-20 22:30N 29°32' W 094°54'3 6.4
2017-Oct-20 22:00N 29°35' W 094°56'3 6.4
2017-Oct-20 21:30N 29°38' W 094°58'3 6.8
2017-Oct-20 21:00N 29°41' W 094°59'3 5.3
2017-Oct-20 20:30N 29°43' W 095°01'5 4.9
2017-Oct-20 19:29N 29°44' W 095°07'3 6.3
2017-Oct-20 18:57N 29°45' W 095°11'3 5.9
2017-Oct-20 18:30N 29°43' W 095°13'3 5.4
2017-Oct-20 18:00N 29°43' W 095°16'0 0.0
2017-Oct-20 17:30N 29°43' W 095°16'0 0.0
2017-Oct-20 17:00N 29°43' W 095°16'0 0.0
2017-Oct-20 16:30N 29°43' W 095°16'0 0.0
2017-Oct-20 15:59N 29°43' W 095°16'0 0.0
2017-Oct-20 15:30N 29°43' W 095°16'0 0.0
2017-Oct-20 15:00N 29°43' W 095°16'0 0.0
2017-Oct-20 14:00N 29°43' W 095°16'0 0.0
2017-Oct-20 13:29N 29°43' W 095°16'0 0.1
2017-Oct-20 12:58N 29°43' W 095°16'0 0.0
2017-Oct-20 11:27N 29°43' W 095°16'0 0.0
2017-Oct-20 10:57N 29°43' W 095°16'0 0.0
2017-Oct-20 10:30N 29°43' W 095°16'0 0.0
2017-Oct-20 10:00N 29°43' W 095°16'0 0.0
2017-Oct-20 09:29N 29°43' W 095°16'0 0.0
2017-Oct-20 08:37N 29°43' W 095°16'0 0.0
2017-Oct-20 08:27N 29°43' W 095°16'0 0.2
2017-Oct-20 08:00N 29°43' W 095°16'2 3.2
2017-Oct-20 07:22N 29°43' W 095°14'2 5.3
2017-Oct-20 06:56N 29°45' W 095°12'3 5.5
2017-Oct-20 06:28N 29°44' W 095°09'3 5.4
2017-Oct-20 05:53N 29°46' W 095°06'2 4.1
2017-Oct-20 05:24N 29°45' W 095°04'2 5.4
2017-Oct-20 04:57N 29°43' W 095°01'2 5.1
2017-Oct-20 04:30N 29°42' W 094°59'4 6.1
2017-Oct-20 03:56N 29°38' W 094°58'3 6.3
2017-Oct-20 03:30N 29°36' W 094°57'3 6.3
2017-Oct-20 03:00N 29°33' W 094°55'  
2017-Oct-17 20:50N 29°32' W 094°54'2 6.1
2017-Oct-17 20:30N 29°33' W 094°55'3 5.9
2017-Oct-17 20:00N 29°36' W 094°57'3 6.5
2017-Oct-17 19:30N 29°39' W 094°58'3 6.6
2017-Oct-17 18:59N 29°42' W 095°00'3 5.8
2017-Oct-17 18:27N 29°44' W 095°03'3 4.8
2017-Oct-17 17:45N 29°44' W 095°07'2 6.6
2017-Oct-17 17:30N 29°44' W 095°09'4 5.7
2017-Oct-17 16:50N 29°44' W 095°13'2 5.6
2017-Oct-17 16:30N 29°43' W 095°15'1 2.0
2017-Oct-17 15:54N 29°43' W 095°16'0 0.3
2017-Oct-17 15:30N 29°43' W 095°16'0 0.1
2017-Oct-17 15:00N 29°43' W 095°16'0 0.0
2017-Oct-17 14:29N 29°43' W 095°16'0 0.0
2017-Oct-17 13:59N 29°43' W 095°16'0 0.0
2017-Oct-17 13:28N 29°43' W 095°16'0 0.0
2017-Oct-17 13:00N 29°43' W 095°16'0 0.0
2017-Oct-17 12:29N 29°43' W 095°16'0 0.0
2017-Oct-17 11:58N 29°43' W 095°16'0 0.0
2017-Oct-17 09:06N 29°43' W 095°16'0 0.0
2017-Oct-17 08:59N 29°43' W 095°16'0 0.5
2017-Oct-17 08:30N 29°43' W 095°16'4 6.1
2017-Oct-17 07:55N 29°44' W 095°12'3 6.3
2017-Oct-17 07:30N 29°44' W 095°09'4 6.8
2017-Oct-17 06:58N 29°46' W 095°05'1 1.5
2017-Oct-17 06:24N 29°46' W 095°06'2 4.6
2017-Oct-17 06:00N 29°45' W 095°06'4 6.9
2017-Oct-17 05:29N 29°45' W 095°10'3 7.0
2017-Oct-17 05:00N 29°43' W 095°14'2 4.3
2017-Oct-17 04:30N 29°43' W 095°16'0 0.4
2017-Oct-17 04:00N 29°43' W 095°16'2 4.0
2017-Oct-17 03:30N 29°43' W 095°14'3 5.5
2017-Oct-17 03:00N 29°45' W 095°11'3 5.7
2017-Oct-17 02:30N 29°44' W 095°08'4 4.5
2017-Oct-17 01:41N 29°45' W 095°04'3 5.6
2017-Oct-17 01:14N 29°43' W 095°01'1 5.4
2017-Oct-17 01:00N 29°42' W 095°01'3 6.0
2017-Oct-17 00:30N 29°40' W 094°58'4 6.8
2017-Oct-16 23:57N 29°36' W 094°57'3 6.7
2017-Oct-16 23:30N 29°34' W 094°55'  
2017-Oct-13 21:30N 29°30' W 094°53'3 6.9
2017-Oct-13 21:00N 29°33' W 094°55'3 6.7
2017-Oct-13 20:30N 29°36' W 094°57'3 6.6
2017-Oct-13 19:59N 29°39' W 094°58'3 6.9
2017-Oct-13 19:30N 29°42' W 095°00'3 6.0
2017-Oct-13 19:00N 29°44' W 095°03'5 5.3
2017-Oct-13 18:02N 29°44' W 095°09'1 6.8
2017-Oct-13 17:57N 29°44' W 095°09'6 2.0
2017-Oct-13 14:53N 29°43' W 095°16'0 0.0
2017-Oct-13 14:29N 29°43' W 095°16'0 0.0
2017-Oct-13 13:58N 29°43' W 095°16'0 0.0
2017-Oct-13 13:30N 29°43' W 095°16'0 0.0
2017-Oct-13 12:58N 29°43' W 095°16'0 0.0
2017-Oct-13 12:30N 29°43' W 095°16'0 0.0
2017-Oct-13 12:00N 29°43' W 095°16'0 0.0
2017-Oct-13 11:30N 29°43' W 095°16'0 0.0
2017-Oct-13 10:51N 29°43' W 095°16'0 0.0
2017-Oct-13 10:29N 29°43' W 095°16'0 0.1
2017-Oct-13 09:59N 29°43' W 095°16'3 3.6
2017-Oct-13 09:15N 29°44' W 095°13'3 5.8
2017-Oct-13 08:44N 29°45' W 095°10'1 6.2
2017-Oct-13 08:30N 29°44' W 095°09'4 5.7
2017-Oct-13 07:48N 29°46' W 095°04'2 6.4
2017-Oct-13 07:25N 29°44' W 095°02'2 5.9
2017-Oct-13 07:00N 29°42' W 095°00'3 6.8
2017-Oct-13 06:30N 29°39' W 094°58'4 7.1
2017-Oct-13 06:00N 29°36' W 094°57'4 7.1
2017-Oct-13 05:30N 29°33' W 094°54'  
2017-Oct-11 00:00N 29°38' W 094°58'3 6.8
2017-Oct-10 23:30N 29°41' W 094°59'3 6.0
2017-Oct-10 22:59N 29°44' W 095°02'  

Dump ship's entire track history